Time;durP1;ratioP1;P1;durP2;ratioP2;P2;SDS_P1;SDS_P2;PMS_P1;PMS_P2;Temp;Humidity;BMP_temperature;BMP_pressure;BME280_temperature;BME280_humidity;BME280_pressure;Samples;Min_cycle;Max_cycle;Signal;HPM_P1;HPM_P2
2021/12/01 00:01:14;;;;;;;13.77;9.18;;;8.20;99.90;;;;;;4800645;29;20066;-89
2021/12/01 00:03:40;;;;;;;9.47;8.10;;;8.30;99.90;;;;;;4801524;29;20051;-88
2021/12/01 00:06:07;;;;;;;12.30;8.52;;;8.30;99.90;;;;;;4817147;29;20043;-88
2021/12/01 00:08:35;;;;;;;18.63;10.88;;;8.30;99.90;;;;;;4786986;30;20396;-89
2021/12/01 00:11:01;;;;;;;16.90;12.30;;;8.30;99.90;;;;;;4771611;30;20051;-89
2021/12/01 00:13:32;;;;;;;14.97;10.90;;;8.40;99.90;;;;;;4786805;30;20047;-89
2021/12/01 00:15:58;;;;;;;15.43;12.18;;;8.40;99.90;;;;;;4786309;30;20066;-89
2021/12/01 00:18:23;;;;;;;18.77;14.00;;;8.50;99.90;;;;;;4817111;29;20051;-89
2021/12/01 00:20:49;;;;;;;19.20;12.57;;;8.50;99.90;;;;;;4799602;29;20051;-88
2021/12/01 00:23:15;;;;;;;21.63;13.00;;;8.50;99.90;;;;;;4801743;29;20104;-89
2021/12/01 00:25:42;;;;;;;21.67;13.50;;;8.50;99.90;;;;;;4801247;29;20051;-89
2021/12/01 00:28:08;;;;;;;;;;;8.60;99.90;;;;;;4800992;29;20491;-89
2021/12/01 00:30:35;;;;;;;24.02;14.23;;;8.50;99.90;;;;;;4770855;30;19929;-89
2021/12/01 00:33:01;;;;;;;20.77;13.48;;;8.60;99.90;;;;;;4784811;30;20069;-89
2021/12/01 00:35:27;;;;;;;19.27;13.63;;;8.60;99.90;;;;;;4785196;29;20502;-89
2021/12/01 00:37:53;;;;;;;22.17;14.55;;;8.60;99.90;;;;;;4784262;30;20426;-88
2021/12/01 00:40:20;;;;;;;17.63;13.67;;;8.60;99.90;;;;;;4770160;30;20063;-89
2021/12/01 00:42:48;;;;;;;17.63;12.70;;;8.60;99.90;;;;;;4784738;30;20309;-89
2021/12/01 00:45:22;;;;;;;22.58;14.80;;;8.60;99.90;;;;;;4785205;30;20055;-89
2021/12/01 00:47:52;;;;;;;24.92;13.45;;;8.60;99.90;;;;;;4755181;30;20055;-88
2021/12/01 00:50:26;;;;;;;19.30;13.32;;;8.70;99.90;;;;;;4784488;29;20043;-89
2021/12/01 00:52:53;;;;;;;20.08;12.35;;;8.60;99.90;;;;;;4769325;30;20047;-88
2021/12/01 00:55:20;;;;;;;16.98;12.25;;;8.70;99.90;;;;;;4785198;30;20047;-88
2021/12/01 00:57:46;;;;;;;24.27;14.27;;;8.30;99.90;;;;;;4784107;30;20149;-88
2021/12/01 01:00:14;;;;;;;17.27;12.90;;;8.60;99.90;;;;;;4755249;30;20106;-88
2021/12/01 01:02:40;;;;;;;26.25;13.32;;;8.70;99.90;;;;;;4784878;30;20091;-88
2021/12/01 01:05:09;;;;;;;19.25;12.00;;;8.50;99.90;;;;;;4784575;30;20051;-88
2021/12/01 01:07:35;;;;;;;19.58;11.25;;;8.70;99.90;;;;;;4799752;29;20055;-88
2021/12/01 01:10:15;;;;;;;24.63;12.50;;;8.70;99.90;;;;;;4784507;30;20055;-88
2021/12/01 01:18:10;;;;;;;18.92;10.95;;;8.70;99.90;;;;;;4791634;29;20097;-88
2021/12/01 01:20:36;;;;;;;;;;;8.70;99.90;;;;;;4770047;30;20082;-88
2021/12/01 01:23:02;;;;;;;17.85;10.77;;;8.70;99.90;;;;;;4784095;30;20675;-88
2021/12/01 01:25:28;;;;;;;19.20;10.23;;;8.80;99.90;;;;;;4785586;30;20124;-88
2021/12/01 01:27:54;;;;;;;17.88;10.75;;;8.90;99.90;;;;;;4800084;29;20066;-89
2021/12/01 01:30:20;;;;;;;17.70;11.53;;;8.80;99.90;;;;;;4815315;29;20475;-88
2021/12/01 01:32:46;;;;;;;19.20;9.13;;;8.80;99.90;;;;;;4754520;30;20141;-88
2021/12/01 01:35:13;;;;;;;14.03;8.40;;;8.50;99.90;;;;;;4799142;29;20457;-88
2021/12/01 01:37:41;;;;;;;;;;;8.80;99.90;;;;;;4784563;30;20100;-89
2021/12/01 01:40:07;;;;;;;;;;;8.70;99.90;;;;;;4783883;30;19983;-88
2021/12/01 01:42:36;;;;;;;15.93;8.57;;;9.10;99.90;;;;;;4783938;29;19929;-89
2021/12/01 01:45:05;;;;;;;13.75;7.28;;;8.80;99.90;;;;;;4798101;29;20106;-89
2021/12/01 01:47:31;;;;;;;10.07;6.82;;;8.80;99.90;;;;;;4784298;30;20104;-88
2021/12/01 01:50:02;;;;;;;6.93;5.27;;;8.80;99.90;;;;;;4769079;30;20047;-89
2021/12/01 01:52:29;;;;;;;7.32;4.95;;;8.80;99.90;;;;;;4799221;29;20418;-88
2021/12/01 01:54:55;;;;;;;6.13;4.82;;;8.80;99.90;;;;;;4783319;30;20048;-88
2021/12/01 01:57:23;;;;;;;8.43;4.63;;;8.80;99.90;;;;;;4784362;30;20117;-89
2021/12/01 01:59:51;;;;;;;14.98;6.25;;;9.30;99.90;;;;;;4783915;29;20079;-87
2021/12/01 02:02:22;;;;;;;7.60;4.82;;;8.10;99.90;;;;;;4786493;30;20035;-89
2021/12/01 02:04:48;;;;;;;7.68;5.22;;;8.80;99.90;;;;;;4784527;30;20628;-88
2021/12/01 02:07:14;;;;;;;5.87;4.27;;;8.80;99.90;;;;;;4787191;30;20138;-89
2021/12/01 02:09:40;;;;;;;8.60;5.47;;;8.00;99.90;;;;;;4784694;30;20047;-88
2021/12/01 02:12:06;;;;;;;6.00;4.50;;;8.80;99.90;;;;;;4786822;29;20059;-89
2021/12/01 02:14:32;;;;;;;4.82;3.40;;;8.80;99.90;;;;;;4802600;29;20058;-89
2021/12/01 02:16:58;;;;;;;3.90;2.90;;;8.80;99.90;;;;;;4797735;29;20059;-89
2021/12/01 02:19:24;;;;;;;3.75;3.33;;;8.90;99.90;;;;;;4787194;30;20528;-88
2021/12/01 02:21:50;;;;;;;3.50;3.17;;;8.90;99.90;;;;;;4818001;29;20047;-89
2021/12/01 02:24:18;;;;;;;3.92;2.97;;;8.90;99.90;;;;;;4771387;30;20051;-89
2021/12/01 02:26:49;;;;;;;3.30;2.58;;;8.90;99.90;;;;;;4786863;30;20059;-89
2021/12/01 02:29:20;;;;;;;4.05;2.78;;;8.80;99.90;;;;;;4786832;30;20051;-89
2021/12/01 02:31:47;;;;;;;3.17;2.10;;;8.90;99.90;;;;;;4802962;29;20051;-89
2021/12/01 02:34:19;;;;;;;3.70;2.17;;;8.90;99.90;;;;;;4801354;29;20055;-89
2021/12/01 02:36:57;;;;;;;2.83;2.35;;;8.90;99.90;;;;;;4787561;30;20085;-89
2021/12/01 02:39:24;;;;;;;2.90;2.13;;;8.90;99.90;;;;;;4816489;29;20067;-89
2021/12/01 02:41:53;;;;;;;2.72;2.50;;;8.90;99.90;;;;;;4817328;29;20047;-89
2021/12/01 02:44:20;;;;;;;2.50;2.10;;;8.90;99.90;;;;;;4771884;30;20087;-89
2021/12/01 02:46:53;;;;;;;2.03;1.83;;;9.00;99.90;;;;;;4787232;30;20058;-89
2021/12/01 02:49:21;;;;;;;4.00;1.90;;;9.00;99.90;;;;;;4816794;29;20055;-89
2021/12/01 02:51:49;;;;;;;6.47;2.78;;;9.00;99.90;;;;;;4772063;30;20156;-89
2021/12/01 02:54:15;;;;;;;3.90;2.45;;;9.10;99.90;;;;;;4786009;30;20066;-89
2021/12/01 02:56:46;;;;;;;2.47;2.00;;;9.20;99.90;;;;;;4787093;30;20131;-90
2021/12/01 02:59:13;;;;;;;3.15;2.05;;;9.10;99.90;;;;;;4786146;30;20054;-89
2021/12/01 03:01:38;;;;;;;5.97;2.08;;;9.00;99.90;;;;;;4816954;29;20127;-90
2021/12/01 03:04:04;;;;;;;2.63;2.23;;;9.10;99.90;;;;;;4785760;30;20090;-90
2021/12/01 03:06:33;;;;;;;2.47;2.20;;;9.10;99.90;;;;;;4786524;30;20051;-89
2021/12/01 03:09:00;;;;;;;3.10;2.80;;;9.10;99.90;;;;;;4786328;30;20658;-89
2021/12/01 03:11:26;;;;;;;4.03;2.10;;;9.10;99.90;;;;;;4771808;30;20058;-89
2021/12/01 03:13:53;;;;;;;2.57;1.90;;;9.10;99.90;;;;;;4786216;29;20410;-90
2021/12/01 03:16:21;;;;;;;2.45;1.90;;;9.10;99.90;;;;;;4785722;30;20706;-89
2021/12/01 03:18:48;;;;;;;1.88;1.67;;;9.10;99.90;;;;;;4786557;30;20047;-90
2021/12/01 03:21:15;;;;;;;4.93;2.30;;;9.10;99.90;;;;;;4770943;30;20116;-89
2021/12/01 03:23:41;;;;;;;2.00;1.80;;;9.10;99.90;;;;;;4804529;29;20051;-89
2021/12/01 03:26:11;;;;;;;2.35;1.80;;;9.10;99.90;;;;;;4771357;30;20084;-90
2021/12/01 03:28:40;;;;;;;1.95;1.52;;;9.10;99.90;;;;;;4786357;30;20047;-90
2021/12/01 03:31:06;;;;;;;2.88;1.83;;;8.40;99.90;;;;;;4785627;30;20050;-89
2021/12/01 03:33:34;;;;;;;2.30;2.07;;;8.50;99.90;;;;;;4785256;30;20051;-90
2021/12/01 03:36:02;;;;;;;2.22;1.83;;;9.10;99.90;;;;;;4801523;29;20082;-89
2021/12/01 03:38:31;;;;;;;4.68;1.88;;;9.00;99.90;;;;;;4787940;29;20396;-88
2021/12/01 03:40:58;;;;;;;7.25;1.58;;;9.10;99.90;;;;;;4819670;29;20134;-86
2021/12/01 03:43:24;;;;;;;;;;;9.00;99.90;;;;;;4774446;29;20073;-87
2021/12/01 03:45:50;;;;;;;1.15;1.00;;;9.00;99.90;;;;;;4789292;29;20321;-87
2021/12/01 03:48:16;;;;;;;4.17;1.30;;;9.00;99.90;;;;;;4788729;29;20038;-87
2021/12/01 03:50:42;;;;;;;4.00;1.58;;;9.00;99.90;;;;;;4788789;29;20047;-87
2021/12/01 03:53:08;;;;;;;10.45;2.50;;;9.00;99.90;;;;;;4818983;29;20051;-87
2021/12/01 03:55:36;;;;;;;1.73;1.40;;;8.90;99.90;;;;;;4788894;29;20120;-87
2021/12/01 03:58:03;;;;;;;6.05;1.55;;;8.90;99.90;;;;;;4803783;29;20047;-86
2021/12/01 04:00:29;;;;;;;2.20;1.60;;;8.90;99.90;;;;;;4805380;29;20054;-88
2021/12/01 04:02:57;;;;;;;4.30;1.83;;;9.00;99.90;;;;;;4774330;29;20119;-88
2021/12/01 04:05:23;;;;;;;4.47;1.90;;;8.20;99.90;;;;;;4818192;29;20683;-89
2021/12/01 04:07:49;;;;;;;6.43;2.13;;;8.90;99.90;;;;;;4804530;29;20051;-89
2021/12/01 04:10:17;;;;;;;3.15;1.98;;;8.90;99.90;;;;;;4802935;29;20532;-88
2021/12/01 04:12:44;;;;;;;3.00;1.60;;;8.70;99.90;;;;;;4818989;29;20452;-88
2021/12/01 04:15:11;;;;;;;3.25;2.10;;;8.90;99.90;;;;;;4802851;29;20059;-88
2021/12/01 04:17:38;;;;;;;3.63;2.22;;;8.90;99.90;;;;;;4789160;29;20062;-88
2021/12/01 04:20:06;;;;;;;2.97;1.85;;;8.90;99.90;;;;;;4818240;29;20047;-88
2021/12/01 04:22:35;;;;;;;3.92;1.77;;;8.90;99.90;;;;;;4788337;29;20051;-87
2021/12/01 04:25:01;;;;;;;2.55;2.22;;;9.20;99.90;;;;;;4802464;29;20050;-87
2021/12/01 04:27:27;;;;;;;1.92;1.65;;;9.00;99.90;;;;;;4818262;29;20039;-88
2021/12/01 04:29:53;;;;;;;2.60;1.80;;;8.90;99.90;;;;;;4787339;29;20069;-88
2021/12/01 04:32:18;;;;;;;1.67;1.33;;;9.00;99.90;;;;;;4775491;29;20108;-88
2021/12/01 04:34:47;;;;;;;1.80;1.13;;;8.70;99.90;;;;;;4803113;29;20546;-87
2021/12/01 04:37:14;;;;;;;2.47;1.80;;;8.90;99.90;;;;;;4802740;29;20050;-88
2021/12/01 04:39:40;;;;;;;2.13;1.48;;;9.00;99.90;;;;;;4785888;29;20087;-88
2021/12/01 04:42:06;;;;;;;2.13;1.60;;;8.90;99.90;;;;;;4788310;29;20094;-88
2021/12/01 04:44:35;;;;;;;2.42;1.17;;;8.90;99.90;;;;;;4803451;29;20120;-88
2021/12/01 04:47:13;;;;;;;3.20;1.77;;;8.90;99.90;;;;;;4802952;29;20054;-87
2021/12/01 04:49:52;;;;;;;3.90;2.15;;;8.10;99.90;;;;;;4803022;29;20074;-88
2021/12/01 04:52:18;;;;;;;4.68;1.58;;;8.90;99.90;;;;;;4787593;29;20145;-87
2021/12/01 04:54:44;;;;;;;3.73;2.13;;;9.00;99.90;;;;;;4772436;29;20166;-87
2021/12/01 04:57:13;;;;;;;2.47;1.43;;;8.90;99.90;;;;;;4787792;29;20450;-87
2021/12/01 04:59:39;;;;;;;1.48;1.38;;;8.30;99.90;;;;;;4802596;29;20043;-87
2021/12/01 05:02:10;;;;;;;1.83;1.70;;;8.90;99.90;;;;;;4803180;29;20115;-88
2021/12/01 05:04:38;;;;;;;2.20;1.40;;;8.80;99.90;;;;;;4787398;29;20054;-88
2021/12/01 05:07:08;;;;;;;4.00;1.95;;;8.90;99.90;;;;;;4787584;29;20051;-88
2021/12/01 05:09:34;;;;;;;1.98;1.30;;;8.20;99.90;;;;;;4787377;29;20111;-88
2021/12/01 05:12:02;;;;;;;1.33;1.03;;;8.80;99.90;;;;;;4787674;29;20482;-88
2021/12/01 05:14:28;;;;;;;2.38;1.70;;;8.80;99.90;;;;;;4802273;29;20055;-88
2021/12/01 05:16:55;;;;;;;1.13;1.02;;;8.80;99.90;;;;;;4788096;29;20146;-88
2021/12/01 05:19:21;;;;;;;0.70;0.70;;;8.80;99.90;;;;;;4786812;29;20126;-87
2021/12/01 05:21:47;;;;;;;1.23;1.13;;;8.70;99.90;;;;;;4787687;29;20471;-87
2021/12/01 05:24:16;;;;;;;1.80;1.10;;;8.70;99.90;;;;;;4802566;29;20046;-87
2021/12/01 05:26:42;;;;;;;1.10;1.00;;;8.50;99.90;;;;;;4787336;29;20514;-87
2021/12/01 05:29:10;;;;;;;1.70;1.30;;;8.70;99.90;;;;;;4802165;29;20104;-87
2021/12/01 05:31:36;;;;;;;1.17;0.95;;;8.70;99.90;;;;;;4816990;29;20138;-87
2021/12/01 05:34:02;;;;;;;1.53;1.40;;;8.70;99.90;;;;;;4772664;29;20133;-86
2021/12/01 05:36:31;;;;;;;1.47;0.93;;;8.70;99.90;;;;;;4790588;29;20371;-87
2021/12/01 05:38:57;;;;;;;2.17;1.30;;;8.70;99.90;;;;;;4772206;29;20414;-88
2021/12/01 05:41:23;;;;;;;1.47;1.37;;;8.70;99.90;;;;;;4802147;29;20059;-87
2021/12/01 05:43:49;;;;;;;1.37;0.93;;;8.60;99.90;;;;;;4817356;29;20058;-87
2021/12/01 05:46:15;;;;;;;1.40;1.30;;;8.60;99.90;;;;;;4817056;29;20047;-87
2021/12/01 05:48:41;;;;;;;1.33;1.23;;;8.00;99.90;;;;;;4801126;29;20043;-87
2021/12/01 05:51:09;;;;;;;1.77;1.60;;;8.60;99.90;;;;;;4802042;29;20084;-87
2021/12/01 05:53:35;;;;;;;1.50;1.40;;;8.60;99.90;;;;;;4786755;29;20105;-88
2021/12/01 05:56:01;;;;;;;1.97;1.60;;;8.50;99.90;;;;;;4786934;29;20487;-87
2021/12/01 05:58:27;;;;;;;2.30;2.17;;;8.50;99.90;;;;;;4816471;29;20055;-87
2021/12/01 06:00:53;;;;;;;1.70;1.60;;;8.60;99.90;;;;;;4802395;29;20383;-87
2021/12/01 06:03:19;;;;;;;1.52;1.35;;;8.50;99.90;;;;;;4786428;29;20507;-87
2021/12/01 06:05:45;;;;;;;1.77;1.50;;;8.50;99.90;;;;;;4787191;29;20182;-87
2021/12/01 06:08:11;;;;;;;1.50;1.40;;;8.50;99.90;;;;;;4786702;29;20134;-87
2021/12/01 06:10:44;;;;;;;1.90;1.67;;;8.40;99.90;;;;;;4786720;29;20051;-87
2021/12/01 06:13:10;;;;;;;2.95;1.95;;;8.50;99.90;;;;;;4801928;29;20046;-87
2021/12/01 06:15:38;;;;;;;1.83;1.73;;;8.40;99.90;;;;;;4786518;29;20494;-87
2021/12/01 06:18:07;;;;;;;1.60;1.48;;;8.40;99.90;;;;;;4816001;29;20089;-87
2021/12/01 06:20:35;;;;;;;1.60;1.50;;;9.20;99.90;;;;;;4800910;29;20523;-88
2021/12/01 06:23:06;;;;;;;1.80;1.33;;;8.40;99.90;;;;;;4774237;29;20494;-87
2021/12/01 06:25:32;;;;;;;1.92;1.35;;;8.40;99.90;;;;;;4816990;29;20059;-88
2021/12/01 06:27:58;;;;;;;1.50;1.33;;;8.30;99.90;;;;;;4803066;29;20162;-88
2021/12/01 06:30:26;;;;;;;1.70;1.40;;;8.30;99.90;;;;;;4801797;29;20522;-87
2021/12/01 06:32:55;;;;;;;2.17;1.77;;;8.30;99.90;;;;;;4772596;29;20051;-87
2021/12/01 06:35:21;;;;;;;1.83;1.17;;;8.30;99.90;;;;;;4786934;29;20043;-88
2021/12/01 06:37:47;;;;;;;1.50;1.40;;;8.30;99.90;;;;;;4771765;29;20109;-88
2021/12/01 06:40:14;;;;;;;1.90;1.42;;;8.20;99.90;;;;;;4813664;29;20503;-88
2021/12/01 06:42:40;;;;;;;;;;;8.20;99.90;;;;;;4754343;30;20125;-88
2021/12/01 06:45:11;;;;;;;1.60;0.80;;;8.20;99.90;;;;;;4768935;30;20364;-88
2021/12/01 06:47:38;;;;;;;1.30;1.08;;;8.20;99.90;;;;;;4813521;29;20495;-88
2021/12/01 06:50:05;;;;;;;0.95;0.65;;;8.20;99.90;;;;;;4771453;30;20051;-88
2021/12/01 06:52:34;;;;;;;2.60;1.38;;;8.20;99.90;;;;;;4801670;29;20055;-88
2021/12/01 06:55:00;;;;;;;0.95;0.70;;;8.20;99.90;;;;;;4786937;30;20050;-88
2021/12/01 06:57:29;;;;;;;1.02;0.98;;;8.20;99.90;;;;;;4800843;29;20048;-88
2021/12/01 06:59:58;;;;;;;1.35;0.60;;;8.10;99.90;;;;;;4786854;30;20075;-88
2021/12/01 07:02:24;;;;;;;1.25;1.15;;;8.10;99.90;;;;;;4786737;30;20054;-88
2021/12/01 07:04:52;;;;;;;1.83;1.30;;;8.10;99.90;;;;;;4801704;29;20043;-88
2021/12/01 07:07:18;;;;;;;0.75;0.75;;;8.60;99.90;;;;;;4801700;29;20126;-88
2021/12/01 07:09:50;;;;;;;1.27;1.00;;;8.10;99.90;;;;;;4785873;30;20201;-88
2021/12/01 07:12:16;;;;;;;1.00;1.00;;;8.00;99.90;;;;;;4801274;29;20419;-87
2021/12/01 07:14:42;;;;;;;0.80;0.75;;;8.10;99.90;;;;;;4803980;29;20243;-83
2021/12/01 07:17:14;;;;;;;0.93;0.80;;;8.00;99.90;;;;;;4817197;29;20039;-93
2021/12/01 07:19:42;;;;;;;1.27;0.93;;;8.00;99.90;;;;;;4800767;29;20039;-87
2021/12/01 07:22:12;;;;;;;6.40;1.58;;;8.10;99.90;;;;;;4816740;29;20094;-90
2021/12/01 07:24:37;;;;;;;1.38;1.13;;;8.10;99.90;;;;;;4800852;29;20414;-87
2021/12/01 07:27:04;;;;;;;0.87;0.87;;;8.10;99.90;;;;;;4801468;29;20047;-89
2021/12/01 07:29:35;;;;;;;1.52;1.05;;;8.00;99.90;;;;;;4786196;30;20085;-90
2021/12/01 07:32:04;;;;;;;1.08;0.90;;;8.10;99.90;;;;;;4771409;30;20422;-95
2021/12/01 07:34:30;;;;;;;1.02;0.93;;;8.00;99.90;;;;;;4800629;29;20093;-90
2021/12/01 07:36:56;;;;;;;0.83;0.83;;;8.00;99.90;;;;;;4801372;29;20085;-88
2021/12/01 07:39:31;;;;;;;1.60;1.37;;;7.60;99.90;;;;;;4801219;29;20491;-88
2021/12/01 07:42:07;;;;;;;1.90;1.27;;;8.00;99.90;;;;;;4785885;30;20067;-91
2021/12/01 07:44:53;;;;;;;2.10;1.67;;;8.10;99.90;;;;;;4800970;29;20115;-88
2021/12/01 07:47:21;;;;;;;1.50;1.40;;;8.00;99.90;;;;;;4815977;29;20129;-90
2021/12/01 07:49:47;;;;;;;1.77;1.20;;;8.00;99.90;;;;;;4800770;29;20479;-91
2021/12/01 07:52:15;;;;;;;1.77;1.67;;;8.10;99.90;;;;;;4785817;30;20058;-91
2021/12/01 07:54:48;;;;;;;1.45;1.27;;;8.00;99.90;;;;;;4800273;29;20059;-91
2021/12/01 07:57:17;;;;;;;2.40;1.50;;;7.30;99.90;;;;;;4770812;30;20059;-92
2021/12/01 07:59:43;;;;;;;1.52;1.42;;;8.10;99.90;;;;;;4785532;29;20044;-84
2021/12/01 08:02:09;;;;;;;2.10;1.90;;;7.80;99.90;;;;;;4770819;30;20070;-90
2021/12/01 08:04:35;;;;;;;1.80;1.70;;;8.10;99.90;;;;;;4770700;30;20301;-90
2021/12/01 08:07:03;;;;;;;1.97;1.70;;;8.10;99.90;;;;;;4800905;29;20707;-91
2021/12/01 08:09:32;;;;;;;3.53;2.60;;;8.10;99.90;;;;;;4799273;29;20082;-89
2021/12/01 08:12:03;;;;;;;4.20;2.33;;;8.10;99.90;;;;;;4770400;30;20083;-90
2021/12/01 08:14:29;;;;;;;3.53;2.20;;;8.20;99.90;;;;;;4800742;29;20070;-90
2021/12/01 08:16:58;;;;;;;2.53;2.30;;;8.20;99.90;;;;;;4784539;30;20507;-91
2021/12/01 08:19:24;;;;;;;4.20;2.47;;;8.20;99.90;;;;;;4770713;30;20039;-90
2021/12/01 08:21:52;;;;;;;5.55;2.60;;;8.20;99.90;;;;;;4784570;30;20047;-85
2021/12/01 08:24:19;;;;;;;3.60;2.20;;;8.20;99.90;;;;;;4770550;30;20414;-88
2021/12/01 08:26:46;;;;;;;5.93;2.25;;;7.60;99.90;;;;;;4800147;29;20051;-89
2021/12/01 08:29:12;;;;;;;;;;;7.70;99.90;;;;;;4785598;30;20086;-85
2021/12/01 08:31:39;;;;;;;3.35;2.50;;;8.30;99.90;;;;;;4770370;30;19972;-86
2021/12/01 08:34:05;;;;;;;;;;;8.30;99.90;;;;;;4786107;30;20051;-85
2021/12/01 08:36:33;;;;;;;5.38;2.67;;;8.30;99.90;;;;;;4786231;30;19975;-90
2021/12/01 08:38:59;;;;;;;3.03;2.20;;;8.30;99.90;;;;;;4815473;29;20072;-88
2021/12/01 08:41:33;;;;;;;2.70;2.45;;;8.30;99.90;;;;;;4773454;29;20073;-88
2021/12/01 08:43:59;;;;;;;3.35;2.20;;;8.30;99.90;;;;;;4788143;29;20089;-89
2021/12/01 08:46:24;;;;;;;2.20;2.00;;;8.20;99.90;;;;;;4788507;29;20090;-85
2021/12/01 08:48:50;;;;;;;4.87;1.90;;;8.30;99.90;;;;;;4787628;29;20107;-86
2021/12/01 08:51:16;;;;;;;3.03;2.17;;;8.30;99.90;;;;;;4803298;29;20084;-87
2021/12/01 08:53:42;;;;;;;2.57;1.90;;;8.30;99.90;;;;;;4788007;29;20051;-87
2021/12/01 08:56:11;;;;;;;2.00;1.67;;;8.30;99.90;;;;;;4788721;29;20050;-90
2021/12/01 08:58:37;;;;;;;2.63;1.50;;;8.30;99.90;;;;;;4802977;29;20046;-89
2021/12/01 09:01:03;;;;;;;3.33;1.60;;;8.20;99.90;;;;;;4773498;29;20112;-90
2021/12/01 09:03:29;;;;;;;1.92;1.33;;;8.20;99.90;;;;;;4773015;29;20158;-88
2021/12/01 09:05:55;;;;;;;3.70;1.83;;;8.20;99.90;;;;;;4772769;29;20078;-87
2021/12/01 09:08:22;;;;;;;9.80;2.03;;;8.20;99.90;;;;;;4802601;29;20042;-87
2021/12/01 09:10:52;;;;;;;3.25;2.15;;;8.20;99.90;;;;;;4787375;29;20047;-86
2021/12/01 09:13:22;;;;;;;8.48;1.88;;;8.20;99.90;;;;;;4773571;29;20486;-87
2021/12/01 09:15:49;;;;;;;1.83;1.45;;;8.20;99.90;;;;;;4818076;29;20100;-87
2021/12/01 09:18:15;;;;;;;5.45;1.80;;;8.20;99.90;;;;;;4787299;29;20137;-87
2021/12/01 09:20:43;;;;;;;8.83;1.93;;;8.20;99.90;;;;;;4787861;29;20125;-87
2021/12/01 09:23:09;;;;;;;2.88;1.52;;;8.20;99.90;;;;;;4772597;29;20055;-87
2021/12/01 09:25:35;;;;;;;4.97;2.10;;;8.20;99.90;;;;;;4802797;29;20112;-87
2021/12/01 09:28:01;;;;;;;6.70;2.03;;;8.30;99.90;;;;;;4787503;29;20071;-86
2021/12/01 09:30:27;;;;;;;1.80;1.10;;;8.50;99.90;;;;;;4786692;29;20220;-87
2021/12/01 09:32:53;;;;;;;5.30;1.50;;;8.70;99.90;;;;;;4802420;29;20197;-87
2021/12/01 09:35:19;;;;;;;3.00;1.20;;;8.20;99.90;;;;;;4787737;29;20648;-90
2021/12/01 09:37:45;;;;;;;6.30;1.33;;;8.20;99.90;;;;;;4802604;29;20061;-86
2021/12/01 09:40:20;;;;;;;7.63;1.30;;;8.20;99.90;;;;;;4789196;29;20312;-88
2021/12/01 09:42:49;;;;;;;7.03;1.38;;;8.10;99.90;;;;;;4787522;29;20129;-86
2021/12/01 09:45:16;;;;;;;2.00;1.30;;;8.10;99.90;;;;;;4789066;29;20065;-86
2021/12/01 09:47:42;;;;;;;5.05;1.20;;;8.00;99.90;;;;;;4804126;29;20054;-87
2021/12/01 09:50:09;;;;;;;6.93;1.20;;;8.00;99.90;;;;;;4773242;29;20147;-86
2021/12/01 09:52:37;;;;;;;1.88;0.95;;;7.90;99.90;;;;;;4788774;29;20055;-88
2021/12/01 09:55:04;;;;;;;3.20;1.15;;;7.90;99.90;;;;;;4773909;29;20058;-85
2021/12/01 09:57:30;;;;;;;4.70;1.23;;;7.90;99.90;;;;;;4789091;29;20133;-85
2021/12/01 09:59:56;;;;;;;1.73;1.10;;;7.90;99.90;;;;;;4773620;29;20133;-86
2021/12/01 10:02:25;;;;;;;3.83;1.08;;;7.90;99.90;;;;;;4774031;29;20057;-88
2021/12/01 10:04:52;;;;;;;9.90;1.50;;;7.90;99.90;;;;;;4801567;29;20047;-93
2021/12/01 10:07:38;;;;;;;1.27;0.75;;;7.90;99.90;;;;;;4791319;29;20047;-90
2021/12/01 10:10:09;;;;;;;4.18;1.38;;;7.90;99.90;;;;;;4786749;29;20047;-86
2021/12/01 10:12:56;;;;;;;3.30;1.00;;;8.00;99.90;;;;;;4772341;29;20081;-89
2021/12/01 10:15:32;;;;;;;5.15;1.20;;;8.00;99.90;;;;;;4802470;29;20050;-89
2021/12/01 10:18:17;;;;;;;6.15;1.42;;;9.00;99.90;;;;;;4802013;29;20063;-88
2021/12/01 10:20:55;;;;;;;6.88;1.30;;;8.10;99.90;;;;;;4786885;29;20047;-89
2021/12/01 10:23:24;;;;;;;5.43;2.00;;;8.10;99.90;;;;;;4817070;29;20059;-90
2021/12/01 10:25:50;;;;;;;7.22;1.70;;;8.10;99.90;;;;;;4821579;29;20183;-90
2021/12/01 10:28:43;;;;;;;4.60;1.02;;;8.20;99.90;;;;;;4790773;29;20131;-91
2021/12/01 10:31:14;;;;;;;6.57;1.15;;;8.10;99.90;;;;;;4790463;29;20054;-90
2021/12/01 10:33:40;;;;;;;6.55;1.52;;;8.20;99.90;;;;;;4806437;29;20061;-89
2021/12/01 10:36:08;;;;;;;4.07;1.55;;;8.20;99.90;;;;;;4775567;29;20146;-89
2021/12/01 10:38:45;;;;;;;4.03;1.10;;;8.30;99.90;;;;;;4775294;29;20554;-90
2021/12/01 10:41:13;;;;;;;8.15;1.38;;;8.20;99.90;;;;;;4802725;29;20062;-90
2021/12/01 10:43:48;;;;;;;2.65;1.10;;;8.20;99.90;;;;;;4790180;29;20234;-90
2021/12/01 10:46:18;;;;;;;3.00;1.13;;;8.20;99.90;;;;;;4822313;29;20054;-88
2021/12/01 10:49:02;;;;;;;1.75;1.15;;;8.10;99.90;;;;;;4794402;29;20505;-96
2021/12/01 10:51:34;;;;;;;3.97;1.50;;;8.10;99.90;;;;;;4819572;29;20047;-90
2021/12/01 10:54:00;;;;;;;7.00;1.85;;;8.10;99.90;;;;;;4790722;29;20061;-89
2021/12/01 10:56:26;;;;;;;6.83;1.40;;;8.10;99.90;;;;;;4790889;29;20042;-90
2021/12/01 10:58:52;;;;;;;3.40;1.17;;;8.10;99.90;;;;;;4775318;29;20149;-88
2021/12/01 11:01:25;;;;;;;4.63;1.33;;;8.10;99.90;;;;;;4805087;29;20039;-89
2021/12/01 11:03:52;;;;;;;1.92;1.25;;;8.00;99.90;;;;;;4804144;29;20047;-90
2021/12/01 11:06:20;;;;;;;2.35;1.02;;;8.00;99.90;;;;;;4789912;29;20108;-90
2021/12/01 11:08:55;;;;;;;2.75;1.10;;;8.10;99.90;;;;;;4819982;29;20407;-89
2021/12/01 11:11:38;;;;;;;1.92;1.13;;;8.00;99.90;;;;;;4797284;29;20047;-90
2021/12/01 11:14:13;;;;;;;6.30;1.25;;;8.00;99.90;;;;;;4789229;29;20051;-89
2021/12/01 11:16:41;;;;;;;6.68;1.35;;;7.70;99.90;;;;;;4805394;29;20456;-89
2021/12/01 11:19:08;;;;;;;4.95;2.15;;;7.90;99.90;;;;;;4789162;29;20051;-89
2021/12/01 11:21:37;;;;;;;4.07;1.50;;;7.80;99.90;;;;;;4802330;29;20421;-89
2021/12/01 11:24:07;;;;;;;7.57;1.55;;;7.80;99.90;;;;;;4789114;29;20050;-91
2021/12/01 11:26:37;;;;;;;3.72;1.58;;;7.80;99.90;;;;;;4819486;29;20417;-91
2021/12/01 11:29:09;;;;;;;2.13;1.40;;;8.00;99.90;;;;;;4789496;29;20039;-91
2021/12/01 11:31:42;;;;;;;8.82;2.17;;;7.90;99.90;;;;;;4819439;29;20125;-90
2021/12/01 11:34:18;;;;;;;6.35;2.05;;;7.90;99.90;;;;;;4789089;29;20559;-91
2021/12/01 11:36:46;;;;;;;5.82;1.50;;;7.90;99.90;;;;;;4804263;29;20099;-91
2021/12/01 11:39:21;;;;;;;5.20;2.13;;;7.90;99.90;;;;;;4789039;29;20074;-89
2021/12/01 11:41:53;;;;;;;5.68;1.48;;;8.00;99.90;;;;;;4775412;29;20055;-90
2021/12/01 11:44:20;;;;;;;8.88;2.20;;;7.90;99.90;;;;;;4807934;29;20374;-91
2021/12/01 11:46:51;;;;;;;6.78;2.08;;;7.90;99.90;;;;;;4775425;29;20051;-91
2021/12/01 11:49:22;;;;;;;7.53;1.77;;;7.90;99.90;;;;;;4804928;29;20053;-89
2021/12/01 11:51:55;;;;;;;7.47;1.40;;;7.80;99.90;;;;;;4789661;29;20046;-87
2021/12/01 11:54:23;;;;;;;8.60;2.10;;;7.90;99.90;;;;;;4804156;29;20195;-91
2021/12/01 11:56:56;;;;;;;4.78;1.88;;;7.80;99.90;;;;;;4804366;29;20051;-91
2021/12/01 11:59:27;;;;;;;9.23;2.47;;;7.80;99.90;;;;;;4788705;29;20570;-92
2021/12/01 12:02:18;;;;;;;7.43;2.30;;;7.80;99.90;;;;;;4789410;29;20078;-92
2021/12/01 12:05:07;;;;;;;7.55;2.17;;;8.50;99.90;;;;;;4789079;29;20059;-92
2021/12/01 12:07:39;;;;;;;6.05;2.10;;;7.40;99.90;;;;;;4818642;29;20082;-92
2021/12/01 12:10:11;;;;;;;11.20;3.30;;;7.60;99.90;;;;;;4818838;29;20043;-91
2021/12/01 12:12:58;;;;;;;6.68;3.03;;;7.60;99.90;;;;;;4820294;29;20414;-91
2021/12/01 12:15:49;;;;;;;7.70;3.53;;;7.60;99.90;;;;;;4803892;29;20055;-91
2021/12/01 12:18:38;;;;;;;10.68;2.63;;;7.60;99.90;;;;;;4803539;29;20046;-91
2021/12/01 12:21:51;;;;;;;7.88;2.55;;;7.60;99.90;;;;;;4773480;29;20047;-91
2021/12/01 12:24:22;;;;;;;7.07;2.72;;;7.70;99.90;;;;;;4803513;29;20140;-91
2021/12/01 12:26:52;;;;;;;8.60;2.20;;;7.90;99.90;;;;;;4818868;29;20509;-90
2021/12/01 12:29:22;;;;;;;16.65;2.42;;;8.10;99.90;;;;;;4788287;29;20039;-92
2021/12/01 12:31:49;;;;;;;5.30;2.35;;;8.00;99.90;;;;;;4788893;29;20051;-92
2021/12/01 12:34:15;;;;;;;7.43;2.20;;;8.00;99.90;;;;;;4788342;29;20065;-91
2021/12/01 12:36:45;;;;;;;6.83;1.90;;;7.90;99.90;;;;;;4803790;29;20129;-91
2021/12/01 12:39:18;;;;;;;5.70;2.33;;;7.80;99.90;;;;;;4803079;29;20091;-91
2021/12/01 12:42:04;;;;;;;11.18;2.33;;;7.70;99.90;;;;;;4803433;29;20066;-92
2021/12/01 12:44:40;;;;;;;6.20;1.88;;;7.60;99.90;;;;;;4803125;29;20054;-88
2021/12/01 12:47:07;;;;;;;7.15;2.00;;;7.50;99.90;;;;;;4787898;29;20075;-89
2021/12/01 12:49:36;;;;;;;7.00;1.92;;;7.60;99.90;;;;;;4818186;29;20049;-89
2021/12/01 12:52:24;;;;;;;4.65;1.85;;;7.40;99.90;;;;;;4787870;29;20054;-91
2021/12/01 12:55:06;;;;;;;4.90;1.60;;;7.30;99.90;;;;;;4788649;29;20054;-92
2021/12/01 12:58:01;;;;;;;7.45;1.80;;;7.30;99.90;;;;;;4787867;29;20134;-91
2021/12/01 13:00:35;;;;;;;4.28;1.42;;;7.20;99.90;;;;;;4815845;29;20061;-91
2021/12/01 13:03:24;;;;;;;3.15;2.00;;;7.20;99.90;;;;;;4817852;29;20111;-91
2021/12/01 13:05:54;;;;;;;4.93;1.50;;;7.10;99.90;;;;;;4784772;29;20150;-92
2021/12/01 13:08:31;;;;;;;2.67;2.03;;;7.10;99.90;;;;;;4787960;29;20502;-91
2021/12/01 13:11:11;;;;;;;3.45;2.00;;;7.00;99.90;;;;;;4802831;29;20213;-92
2021/12/01 13:13:43;;;;;;;6.07;2.65;;;7.10;99.90;;;;;;4794224;29;20130;-91